createdAt,value
2019-01-12T00:00:18.338Z,37.4
2019-01-12T00:01:30.529Z,37.4
2019-01-12T00:02:42.731Z,37.4
2019-01-12T00:03:54.922Z,37.4
2019-01-12T00:05:07.000Z,37.4
2019-01-12T00:06:19.312Z,37.4
2019-01-12T00:08:43.000Z,37.6
2019-01-12T00:09:55.895Z,37.6
2019-01-12T00:11:08.087Z,37.5
2019-01-12T00:13:32.506Z,37.5
2019-01-12T00:14:44.668Z,37.5
2019-01-12T00:15:56.868Z,37.5
2019-01-12T00:17:09.055Z,37.5
2019-01-12T00:18:21.253Z,37.5
2019-01-12T00:19:33.442Z,37.5
2019-01-12T00:20:45.639Z,37.5
2019-01-12T00:21:57.844Z,37.6
2019-01-12T00:24:22.500Z,37.5
2019-01-12T00:25:34.412Z,37.6
2019-01-12T00:26:46.000Z,37.7
2019-01-12T00:27:58.795Z,37.7
2019-01-12T00:29:10.099Z,37.6
2019-01-12T00:30:23.193Z,37.6
2019-01-12T00:31:35.386Z,37.6
2019-01-12T00:32:47.000Z,37.5
2019-01-12T00:33:59.776Z,37.6
2019-01-12T00:35:11.968Z,37.6
2019-01-12T00:36:24.162Z,37.5
2019-01-12T00:37:36.350Z,37.6
2019-01-12T00:38:48.547Z,37.6
2019-01-12T00:40:00.735Z,37.6
2019-01-12T00:41:12.000Z,37.6
2019-01-12T00:42:25.130Z,37.6
2019-01-12T00:43:37.317Z,37.6
2019-01-12T00:44:49.513Z,37.5
2019-01-12T00:46:01.722Z,37.4
2019-01-12T00:47:13.960Z,37.4
2019-01-12T00:48:26.100Z,37.4
2019-01-12T00:49:38.029Z,37.4
2019-01-12T00:50:50.486Z,37.4
2019-01-12T00:52:02.682Z,37.4
2019-01-12T00:53:14.877Z,37.4
2019-01-12T00:54:27.067Z,37.4
2019-01-12T00:55:39.026Z,37.4
2019-01-12T00:56:51.045Z,37.3
2019-01-12T00:58:03.646Z,37.2
2019-01-12T00:59:15.841Z,37.2
2019-01-12T01:00:28.036Z,37.1
2019-01-12T01:01:40.234Z,37.1
2019-01-12T01:02:52.427Z,37
2019-01-12T01:04:04.622Z,37
2019-01-12T01:05:16.816Z,37
2019-01-12T01:06:29.011Z,36.9
2019-01-12T01:07:41.200Z,36.9
2019-01-12T01:08:53.392Z,36.8
2019-01-12T01:10:05.586Z,36.6
2019-01-12T01:11:17.811Z,36.4
2019-01-12T01:12:29.977Z,36.5
2019-01-12T01:13:42.171Z,36.6
2019-01-12T01:14:54.368Z,36.5
2019-01-12T01:16:06.557Z,36.4
2019-01-12T01:17:18.754Z,36.5
2019-01-12T01:18:30.946Z,36.4
2019-01-12T01:19:43.133Z,36.5
2019-01-12T01:20:55.333Z,36.5
2019-01-12T01:22:07.525Z,36.5
2019-01-12T01:24:31.917Z,36.4
2019-01-12T01:25:44.001Z,36.4
2019-01-12T01:28:08.500Z,36.1
2019-01-12T01:29:20.692Z,36.2
2019-01-12T01:30:32.896Z,36.2
2019-01-12T01:31:45.081Z,36.3
2019-01-12T01:32:57.269Z,36.2
2019-01-12T01:34:09.046Z,36.2
2019-01-12T01:35:21.662Z,36.3
2019-01-12T01:36:33.857Z,36.3
2019-01-12T01:37:46.057Z,36.3
2019-01-12T01:38:58.248Z,36.3
2019-01-12T01:40:10.441Z,36.3
2019-01-12T01:42:34.824Z,36.3
2019-01-12T01:43:47.017Z,36.3
2019-01-12T01:44:59.216Z,36.3
2019-01-12T01:46:11.000Z,36.3
2019-01-12T01:47:23.605Z,36.2
2019-01-12T01:48:35.795Z,36.2
2019-01-12T01:49:47.995Z,36.3
2019-01-12T01:51:00.181Z,36.3
2019-01-12T01:52:12.380Z,36.3
2019-01-12T01:53:24.578Z,36.3
2019-01-12T01:54:36.766Z,36.3
2019-01-12T01:55:48.964Z,36.4
2019-01-12T01:57:01.159Z,36.3
2019-01-12T01:58:13.350Z,36.4
2019-01-12T01:59:25.540Z,36.4
2019-01-12T02:00:37.000Z,36.4
2019-01-12T02:01:49.929Z,36.4
2019-01-12T02:03:02.121Z,36.5
2019-01-12T02:04:14.322Z,36.5
2019-01-12T02:05:26.512Z,36.5
2019-01-12T02:06:38.709Z,36.5
2019-01-12T02:07:50.000Z,36.5
2019-01-12T02:09:03.097Z,36.6
2019-01-12T02:10:15.289Z,36.6
2019-01-12T02:11:27.478Z,36.6
2019-01-12T02:12:39.680Z,36.5
2019-01-12T02:13:51.866Z,36.6
2019-01-12T02:15:04.068Z,36.6
2019-01-12T02:16:16.263Z,36.6
2019-01-12T02:17:28.454Z,36.6
2019-01-12T02:18:40.644Z,36.6
2019-01-12T02:19:52.844Z,36.6
2019-01-12T02:21:05.040Z,36.7
2019-01-12T02:22:17.232Z,36.7
2019-01-12T02:23:29.426Z,36.7
2019-01-12T02:24:41.621Z,36.7
2019-01-12T02:25:53.823Z,36.8
2019-01-12T02:27:06.011Z,36.8
2019-01-12T02:28:18.208Z,36.8
2019-01-12T02:29:30.000Z,36.8
2019-01-12T02:30:42.598Z,36.8
2019-01-12T02:31:54.795Z,36.7
2019-01-12T02:33:06.992Z,36.7
2019-01-12T02:34:19.182Z,36.6
2019-01-12T02:35:31.380Z,36.7
2019-01-12T02:36:43.000Z,36.6
2019-01-12T02:37:55.769Z,36.6
2019-01-12T02:40:20.158Z,36.5
2019-01-12T02:41:32.035Z,36.6
2019-01-12T02:42:44.542Z,36.6
2019-01-12T02:43:56.746Z,36.6
2019-01-12T02:45:08.000Z,36.5
2019-01-12T02:46:21.132Z,36.5
2019-01-12T02:48:45.523Z,36.5
2019-01-12T02:49:57.722Z,36.5
2019-01-12T02:51:09.000Z,36.5
2019-01-12T02:52:22.116Z,36.4
2019-01-12T02:53:34.304Z,36.5
2019-01-12T02:54:46.506Z,36.5
2019-01-12T02:55:58.693Z,36.5
2019-01-12T02:57:10.000Z,36.5
2019-01-12T02:58:23.011Z,36.5
2019-01-12T02:59:35.297Z,36.3
2019-01-12T03:00:47.483Z,36.4
2019-01-12T03:01:59.674Z,36.5
2019-01-12T03:03:11.868Z,36.4
2019-01-12T03:04:24.068Z,36.4
2019-01-12T03:05:36.269Z,36.4
2019-01-12T03:06:48.461Z,36.4
2019-01-12T03:08:00.656Z,36.3
2019-01-12T03:09:12.854Z,36.2
2019-01-12T03:10:25.044Z,36
2019-01-12T03:12:49.000Z,36
2019-01-12T03:14:01.632Z,35.9
2019-01-12T03:15:13.082Z,36
2019-01-12T03:16:26.002Z,36
2019-01-12T03:17:38.021Z,36
2019-01-12T03:18:50.412Z,36
2019-01-12T03:20:02.611Z,36
2019-01-12T03:21:14.000Z,35.9
2019-01-12T03:22:27.015Z,36
2019-01-12T03:23:39.200Z,36
2019-01-12T03:24:51.390Z,36
2019-01-12T03:26:03.594Z,36
2019-01-12T03:27:15.787Z,36.1
2019-01-12T03:28:27.979Z,36.1
2019-01-12T03:29:40.018Z,36.1
2019-01-12T03:30:52.371Z,36.1
2019-01-12T03:32:04.569Z,36.1
2019-01-12T03:33:16.758Z,36.1
2019-01-12T03:34:28.954Z,36.1
2019-01-12T03:35:41.151Z,36.1
2019-01-12T03:36:53.343Z,36.2
2019-01-12T03:38:05.540Z,36.1
2019-01-12T03:40:29.934Z,36.2
2019-01-12T03:41:42.012Z,36.1
2019-01-12T03:42:54.328Z,36.1
2019-01-12T03:44:06.520Z,36.1
2019-01-12T03:45:18.000Z,36.1
2019-01-12T03:46:30.916Z,36.1
2019-01-12T03:47:43.108Z,36.1
2019-01-12T03:48:55.297Z,36.1
2019-01-12T03:50:07.505Z,36.1
2019-01-12T03:51:19.694Z,36.1
2019-01-12T03:52:31.883Z,36.1
2019-01-12T03:53:44.081Z,36.1
2019-01-12T03:54:56.285Z,36.1
2019-01-12T03:56:08.000Z,36.1
2019-01-12T03:57:20.668Z,36.1
2019-01-12T03:58:32.868Z,36.1
2019-01-12T03:59:45.062Z,36.2
2019-01-12T04:00:57.026Z,36.1
2019-01-12T04:02:09.458Z,36.2
2019-01-12T04:03:21.653Z,36.3
2019-01-12T04:04:33.008Z,36.3
2019-01-12T04:05:46.037Z,36.3
2019-01-12T04:06:58.234Z,36.3
2019-01-12T04:08:10.427Z,36.3
2019-01-12T04:09:22.625Z,36.4
2019-01-12T04:10:34.817Z,36.4
2019-01-12T04:11:47.028Z,36.5
2019-01-12T04:12:59.211Z,36.5
2019-01-12T04:14:11.409Z,36.4
2019-01-12T04:15:23.602Z,36.5
2019-01-12T04:16:35.801Z,36.5
2019-01-12T04:17:48.000Z,36.6
2019-01-12T04:19:00.194Z,36.5
2019-01-12T04:21:24.000Z,36.7
2019-01-12T04:22:36.773Z,36.7
2019-01-12T04:25:01.000Z,36.8
2019-01-12T04:26:13.000Z,36.8
2019-01-12T04:27:25.553Z,36.9
2019-01-12T04:28:37.751Z,36.9
2019-01-12T04:29:49.943Z,36.9
2019-01-12T04:31:02.145Z,36.9
2019-01-12T04:32:14.003Z,36.9
2019-01-12T04:33:26.538Z,36.9
2019-01-12T04:34:38.734Z,37
2019-01-12T04:35:50.093Z,36.9
2019-01-12T04:37:03.127Z,36.9
2019-01-12T04:38:15.323Z,37
2019-01-12T04:39:27.512Z,37.1
2019-01-12T04:40:39.709Z,37
2019-01-12T04:41:51.902Z,37
2019-01-12T04:43:04.100Z,37.2
2019-01-12T04:44:16.293Z,37.1
2019-01-12T04:45:28.492Z,37.1
2019-01-12T04:46:40.690Z,37.1
2019-01-12T04:47:52.883Z,37.2
2019-01-12T04:49:05.076Z,37.2
2019-01-12T04:50:17.269Z,37.2
2019-01-12T04:51:29.004Z,37.1
2019-01-12T04:52:41.693Z,37.1
2019-01-12T04:53:53.858Z,37.2
2019-01-12T04:55:06.054Z,37.1
2019-01-12T04:56:18.250Z,37.1
2019-01-12T04:57:30.451Z,37.1
2019-01-12T04:58:42.641Z,37.2
2019-01-12T04:59:54.831Z,37.2
2019-01-12T05:01:07.038Z,37.1
2019-01-12T05:02:19.234Z,37.1
2019-01-12T05:03:31.425Z,37.2
2019-01-12T05:04:43.615Z,37.2
2019-01-12T05:05:55.814Z,37.2
2019-01-12T05:07:08.004Z,37.2
2019-01-12T05:08:20.000Z,37.1
2019-01-12T05:09:32.412Z,37.2
2019-01-12T05:10:44.595Z,37.1
2019-01-12T05:11:56.080Z,37.1
2019-01-12T05:13:08.098Z,37.1
2019-01-12T05:14:21.180Z,37.1
2019-01-12T05:15:33.381Z,37
2019-01-12T05:16:45.572Z,37
2019-01-12T05:17:57.076Z,37.1
2019-01-12T05:19:09.965Z,37.1
2019-01-12T05:20:22.164Z,37
2019-01-12T05:21:34.351Z,37.1
2019-01-12T05:22:46.558Z,37.1
2019-01-12T05:23:58.744Z,37.2
2019-01-12T05:25:10.941Z,37.1
2019-01-12T05:26:23.138Z,37.2
2019-01-12T05:27:35.330Z,37.2
2019-01-12T05:28:47.052Z,37.1
2019-01-12T05:29:59.000Z,37.2
2019-01-12T05:31:11.920Z,37.2
2019-01-12T05:32:24.117Z,37.2
2019-01-12T05:33:36.308Z,37.2
2019-01-12T05:34:48.510Z,37.2
2019-01-12T05:36:00.712Z,37.2
2019-01-12T05:37:12.000Z,37.1
2019-01-12T05:38:25.009Z,37.1
2019-01-12T05:39:37.282Z,37
2019-01-12T05:40:49.478Z,37
2019-01-12T05:42:01.683Z,37
2019-01-12T05:43:13.000Z,37.1
2019-01-12T05:44:26.063Z,37.1
2019-01-12T05:45:38.262Z,37.1
2019-01-12T05:46:50.463Z,37
2019-01-12T05:48:02.656Z,37
2019-01-12T05:49:14.845Z,37
2019-01-12T05:50:27.042Z,37
2019-01-12T05:51:39.024Z,37
2019-01-12T05:52:51.435Z,36.9
2019-01-12T05:54:03.637Z,36.9
2019-01-12T05:55:15.832Z,36.9
2019-01-12T05:56:28.024Z,36.8
2019-01-12T05:57:40.219Z,36.8
2019-01-12T05:58:52.422Z,36.8
2019-01-12T06:00:04.615Z,36.6
2019-01-12T06:01:16.805Z,36.7
2019-01-12T06:02:29.000Z,36.7
2019-01-12T06:03:41.207Z,36.8
2019-01-12T06:04:53.396Z,36.6
2019-01-12T06:06:05.059Z,36.6
2019-01-12T06:07:17.788Z,36.6
2019-01-12T06:08:29.978Z,36.7
2019-01-12T06:09:42.173Z,36.7
2019-01-12T06:10:54.379Z,36.6
2019-01-12T06:12:06.571Z,36.5
2019-01-12T06:13:18.772Z,36.5
2019-01-12T06:14:30.956Z,36.5
2019-01-12T06:15:43.152Z,36.4
2019-01-12T06:16:55.344Z,36.5
2019-01-12T06:18:07.544Z,36.5
2019-01-12T06:19:19.735Z,36.4
2019-01-12T06:20:31.000Z,36.4
2019-01-12T06:21:44.136Z,36.4
2019-01-12T06:22:56.325Z,36.5
2019-01-12T06:24:08.517Z,36.5
2019-01-12T06:25:20.071Z,36.5
2019-01-12T06:26:32.913Z,36.4
2019-01-12T06:27:45.000Z,36.4
2019-01-12T06:28:57.304Z,36.7
2019-01-12T06:30:09.050Z,36.5
2019-01-12T06:31:21.692Z,36.5
2019-01-12T06:32:33.885Z,36.5
2019-01-12T06:33:46.087Z,36.5
2019-01-12T06:34:58.281Z,36.5
2019-01-12T06:36:10.476Z,36.5
2019-01-12T06:37:22.667Z,36.5
2019-01-12T06:38:34.086Z,36.5
2019-01-12T06:39:47.061Z,36.5
2019-01-12T06:40:59.255Z,36.4
2019-01-12T06:42:11.000Z,36.4
2019-01-12T06:43:23.650Z,36.4
2019-01-12T06:44:35.846Z,36.4
2019-01-12T06:45:48.042Z,36.4
2019-01-12T06:47:00.230Z,36.4
2019-01-12T06:48:12.426Z,36.4
2019-01-12T06:49:24.062Z,36.5
2019-01-12T06:50:36.819Z,36.4
2019-01-12T06:51:49.016Z,36.5
2019-01-12T06:53:01.230Z,36.6
2019-01-12T06:54:13.411Z,36.5
2019-01-12T06:55:25.606Z,36.4
2019-01-12T06:56:37.798Z,36.5
2019-01-12T06:57:49.990Z,36.6
2019-01-12T06:59:02.195Z,36.5
2019-01-12T07:00:14.383Z,36.5
2019-01-12T07:01:26.586Z,36.5
2019-01-12T07:02:38.780Z,36.6
2019-01-12T07:03:50.974Z,36.7
2019-01-12T07:05:03.165Z,36.7
2019-01-12T07:06:15.359Z,36.7
2019-01-12T07:07:27.555Z,36.8
2019-01-12T07:08:39.753Z,36.7
2019-01-12T07:09:51.959Z,36.7
2019-01-12T07:11:04.000Z,36.8
2019-01-12T07:13:28.550Z,36.8
2019-01-12T07:14:40.074Z,36.8
2019-01-12T07:15:52.932Z,36.8
2019-01-12T07:17:05.126Z,36.9
2019-01-12T07:18:17.327Z,36.9
2019-01-12T07:19:29.518Z,36.9
2019-01-12T07:20:41.711Z,36.9
2019-01-12T07:21:53.915Z,37
2019-01-12T07:23:06.107Z,37
2019-01-12T07:24:18.029Z,37
2019-01-12T07:25:30.505Z,37.1
2019-01-12T07:26:42.694Z,37.1
2019-01-12T07:27:54.892Z,37.1
2019-01-12T07:29:07.082Z,37.2
2019-01-12T07:30:19.281Z,37.2
2019-01-12T07:31:31.482Z,37.3
2019-01-12T07:32:43.675Z,37.3
2019-01-12T07:33:55.871Z,37.3
2019-01-12T07:35:08.007Z,37.4
2019-01-12T07:36:20.264Z,37.4
2019-01-12T07:37:32.455Z,37.4
2019-01-12T07:38:44.659Z,37.4
2019-01-12T07:39:56.845Z,37.4
2019-01-12T07:41:09.004Z,37.5
2019-01-12T07:42:21.237Z,37.5
2019-01-12T07:43:33.438Z,37.5
2019-01-12T07:44:45.063Z,37.5
2019-01-12T07:45:57.826Z,37.5
2019-01-12T07:47:10.029Z,37.6
2019-01-12T07:48:22.221Z,37.6
2019-01-12T07:49:34.410Z,37.6
2019-01-12T07:50:46.060Z,37.6
2019-01-12T07:51:58.801Z,37.7
2019-01-12T07:53:11.003Z,37.7
2019-01-12T07:54:23.198Z,37.8
2019-01-12T07:55:35.396Z,37.8
2019-01-12T07:56:47.058Z,37.8
2019-01-12T07:57:59.078Z,37.9
2019-01-12T07:59:11.987Z,37.8
2019-01-12T08:01:36.367Z,37.9
2019-01-12T08:02:48.571Z,37.9
2019-01-12T08:04:00.762Z,37.9
2019-01-12T08:05:12.958Z,38
2019-01-12T08:06:25.155Z,38
2019-01-12T08:07:37.352Z,38
2019-01-12T08:08:49.545Z,38
2019-01-12T08:10:01.743Z,38
2019-01-12T08:12:26.139Z,38.2
2019-01-12T08:13:38.329Z,38.2
2019-01-12T08:14:50.530Z,38.2
2019-01-12T08:16:02.000Z,38.2
2019-01-12T08:17:14.919Z,38.2
2019-01-12T08:18:27.114Z,38.3
2019-01-12T08:19:39.311Z,38.3
2019-01-12T08:20:51.505Z,38.3
2019-01-12T08:22:03.705Z,38.3
2019-01-12T08:23:15.897Z,38.4
2019-01-12T08:24:28.093Z,38.3
2019-01-12T08:25:40.293Z,38.4
2019-01-12T08:26:52.481Z,38.4
2019-01-12T08:28:04.682Z,38.4
2019-01-12T08:29:16.872Z,38.4
2019-01-12T08:30:29.000Z,38.4
2019-01-12T08:31:41.272Z,38.5
2019-01-12T08:32:53.462Z,38.4
2019-01-12T08:34:05.662Z,38.5
2019-01-12T08:35:17.853Z,38.5
2019-01-12T08:36:30.004Z,38.5
2019-01-12T08:37:42.000Z,38.5
2019-01-12T08:38:54.446Z,38.6
2019-01-12T08:40:06.636Z,38.6
2019-01-12T08:41:18.838Z,38.6
2019-01-12T08:42:31.029Z,38.6
2019-01-12T08:43:43.225Z,38.6
2019-01-12T08:44:55.000Z,38.7
2019-01-12T08:46:07.061Z,38.7
2019-01-12T08:47:19.807Z,38.6
2019-01-12T08:48:32.008Z,38.7
2019-01-12T08:49:44.207Z,38.7
2019-01-12T08:50:56.394Z,38.7
2019-01-12T08:52:08.000Z,38.7
2019-01-12T08:53:20.789Z,38.7
2019-01-12T08:54:32.991Z,38.7
2019-01-12T08:55:45.174Z,38.8
2019-01-12T08:56:57.373Z,38.8
2019-01-12T08:58:09.056Z,38.8
2019-01-12T08:59:21.773Z,38.8
2019-01-12T09:00:33.970Z,38.8
2019-01-12T09:01:46.162Z,38.8
2019-01-12T09:02:58.353Z,38.9
2019-01-12T09:04:10.546Z,38.8
2019-01-12T09:05:22.744Z,38.9
2019-01-12T09:06:34.000Z,38.9
2019-01-12T09:07:47.140Z,38.9
2019-01-12T09:08:59.033Z,38.9
2019-01-12T09:10:11.544Z,39
2019-01-12T09:11:23.721Z,39
2019-01-12T09:12:35.920Z,38.9
2019-01-12T09:13:48.110Z,39
2019-01-12T09:15:00.312Z,39
2019-01-12T09:16:12.501Z,39
2019-01-12T09:17:24.699Z,39
2019-01-12T09:18:36.898Z,39
2019-01-12T09:19:49.096Z,39
2019-01-12T09:21:01.284Z,39
2019-01-12T09:22:13.486Z,39
2019-01-12T09:23:25.677Z,39
2019-01-12T09:25:50.076Z,39.1
2019-01-12T09:27:02.268Z,39.1
2019-01-12T09:28:14.000Z,39.1
2019-01-12T09:29:26.658Z,39.1
2019-01-12T09:31:51.049Z,39.1
2019-01-12T09:33:03.244Z,39.1
2019-01-12T09:34:15.444Z,39.1
2019-01-12T09:35:27.640Z,39.1
2019-01-12T09:36:39.834Z,39.2
2019-01-12T09:37:52.035Z,39.1
2019-01-12T09:39:04.000Z,39.2
2019-01-12T09:40:16.423Z,39.1
2019-01-12T09:41:28.613Z,39.2
2019-01-12T09:42:40.816Z,39.2
2019-01-12T09:43:53.007Z,39.2
2019-01-12T09:45:05.201Z,39.2
2019-01-12T09:46:17.404Z,39.2
2019-01-12T09:47:29.596Z,39.2
2019-01-12T09:48:41.788Z,39.2
2019-01-12T09:49:54.001Z,39.3
2019-01-12T09:51:06.018Z,39.2
2019-01-12T09:52:18.378Z,39.2
2019-01-12T09:53:30.572Z,39.3
2019-01-12T09:54:42.766Z,39.2
2019-01-12T09:55:54.968Z,39.2
2019-01-12T09:57:07.000Z,39.3
2019-01-12T09:58:19.468Z,39.2
2019-01-12T09:59:31.672Z,39.2
2019-01-12T10:00:43.869Z,39.2
2019-01-12T10:01:56.057Z,39.3
2019-01-12T10:03:08.256Z,39.3
2019-01-12T10:04:20.000Z,39.2
2019-01-12T10:05:32.064Z,39.3
2019-01-12T10:06:44.838Z,39.3
2019-01-12T10:07:57.033Z,39.3
2019-01-12T10:09:09.228Z,39.3
2019-01-12T10:10:21.427Z,39.3
2019-01-12T10:11:33.000Z,39.2
2019-01-12T10:12:45.815Z,39.4
2019-01-12T10:13:58.017Z,39.3
2019-01-12T10:15:10.204Z,39.4
2019-01-12T10:16:22.041Z,39.3
2019-01-12T10:17:34.604Z,39.3
2019-01-12T10:18:46.798Z,39.4
2019-01-12T10:19:58.000Z,39.4
2019-01-12T10:21:11.193Z,39.4
2019-01-12T10:22:23.382Z,39.3
2019-01-12T10:23:35.580Z,39.3
2019-01-12T10:24:47.777Z,39.3
2019-01-12T10:25:59.973Z,39.4
2019-01-12T10:27:12.171Z,39.4
2019-01-12T10:28:24.363Z,39.4
2019-01-12T10:29:36.560Z,39.4
2019-01-12T10:30:48.760Z,39.4
2019-01-12T10:32:00.951Z,39.4
2019-01-12T10:33:13.000Z,39.4
2019-01-12T10:34:25.000Z,39.4
2019-01-12T10:35:37.535Z,39.4
2019-01-12T10:36:49.733Z,39.4
2019-01-12T10:38:01.923Z,39.4
2019-01-12T10:39:14.124Z,39.4
2019-01-12T10:40:26.000Z,39.5
2019-01-12T10:41:38.510Z,39.4
2019-01-12T10:42:50.706Z,39.5
2019-01-12T10:44:02.910Z,39.5
2019-01-12T10:45:15.013Z,39.4
2019-01-12T10:46:27.300Z,39.4
2019-01-12T10:47:39.000Z,39.4
2019-01-12T10:48:51.693Z,39.5
2019-01-12T10:50:03.888Z,39.5
2019-01-12T10:51:16.083Z,39.5
2019-01-12T10:52:28.277Z,39.5
2019-01-12T10:53:40.474Z,39.5
2019-01-12T10:54:52.663Z,39.5
2019-01-12T10:56:04.871Z,39.5
2019-01-12T10:57:17.062Z,39.5
2019-01-12T10:58:29.251Z,39.5
2019-01-12T10:59:41.456Z,39.5
2019-01-12T11:02:05.846Z,39.5
2019-01-12T11:03:18.035Z,39.5
2019-01-12T11:04:30.234Z,39.5
2019-01-12T11:05:42.427Z,39.6
2019-01-12T11:06:54.623Z,39.5
2019-01-12T11:08:06.816Z,39.5
2019-01-12T11:09:19.010Z,39.5
2019-01-12T11:10:31.214Z,39.6
2019-01-12T11:14:07.794Z,39.5
2019-01-12T11:15:20.001Z,39.6
2019-01-12T11:16:32.000Z,39.6
2019-01-12T11:17:44.386Z,39.6
2019-01-12T11:18:56.582Z,39.6
2019-01-12T11:20:08.782Z,39.6
2019-01-12T11:21:20.978Z,39.6
2019-01-12T11:22:33.173Z,39.6
2019-01-12T11:23:45.000Z,39.5
2019-01-12T11:24:57.558Z,39.5
2019-01-12T11:26:09.761Z,39.5
2019-01-12T11:27:21.956Z,39.5
2019-01-12T11:28:34.145Z,39.6
2019-01-12T11:29:46.344Z,39.6
2019-01-12T11:30:58.546Z,39.6
2019-01-12T11:32:10.744Z,39.6
2019-01-12T11:33:22.938Z,39.6
2019-01-12T11:34:35.135Z,39.6
2019-01-12T11:35:47.032Z,39.6
2019-01-12T11:38:11.721Z,39.6
2019-01-12T11:39:23.909Z,39.6
2019-01-12T11:41:48.030Z,39.7
2019-01-12T11:43:00.508Z,39.6
2019-01-12T11:44:12.694Z,39.6
2019-01-12T11:45:24.891Z,39.6
2019-01-12T11:46:37.085Z,39.6
2019-01-12T11:47:49.280Z,39.6
2019-01-12T11:49:01.483Z,39.6
2019-01-12T11:50:13.674Z,39.6
2019-01-12T11:51:25.872Z,39.6
2019-01-12T11:52:38.062Z,39.6
2019-01-12T11:53:50.256Z,39.6
2019-01-12T11:55:02.451Z,39.6
2019-01-12T11:56:14.640Z,39.5
2019-01-12T11:57:26.844Z,39.5
2019-01-12T11:58:39.032Z,39.5
2019-01-12T11:59:51.235Z,39.6
2019-01-12T12:01:03.425Z,39.6
2019-01-12T12:02:15.619Z,39.6
2019-01-12T12:03:27.811Z,39.6
2019-01-12T12:04:40.002Z,39.6
2019-01-12T12:05:52.192Z,39.6
2019-01-12T12:07:04.395Z,39.6
2019-01-12T12:08:16.607Z,39.6
2019-01-12T12:09:28.781Z,39.6
2019-01-12T12:10:40.977Z,39.6
2019-01-12T12:11:53.173Z,39.6
2019-01-12T12:13:05.354Z,39.6
2019-01-12T12:14:17.055Z,39.7
2019-01-12T12:15:29.752Z,39.7
2019-01-12T12:16:41.941Z,39.7
2019-01-12T12:17:54.014Z,39.7
2019-01-12T12:19:06.334Z,39.7
2019-01-12T12:20:18.533Z,39.7
2019-01-12T12:21:30.000Z,39.7
2019-01-12T12:22:42.913Z,39.7
2019-01-12T12:23:55.105Z,39.7
2019-01-12T12:25:07.305Z,39.7
2019-01-12T12:26:19.502Z,39.7
2019-01-12T12:27:31.694Z,39.6
2019-01-12T12:28:43.878Z,39.7
2019-01-12T12:29:56.008Z,39.7
2019-01-12T12:31:08.270Z,39.7
2019-01-12T12:32:20.459Z,39.8
2019-01-12T12:33:32.655Z,39.7
2019-01-12T12:34:44.848Z,39.7
2019-01-12T12:35:57.004Z,39.7
2019-01-12T12:37:09.256Z,39.7
2019-01-12T12:38:21.438Z,39.7
2019-01-12T12:39:33.633Z,39.7
2019-01-12T12:41:58.001Z,39.7
2019-01-12T12:43:10.219Z,39.8
2019-01-12T12:44:22.405Z,39.8
2019-01-12T12:45:34.595Z,39.8
2019-01-12T12:46:46.791Z,39.8
2019-01-12T12:47:58.098Z,39.8
2019-01-12T12:49:11.017Z,39.8
2019-01-12T12:51:35.573Z,39.8
2019-01-12T12:52:47.764Z,39.8
2019-01-12T12:54:00.065Z,39.8
2019-01-12T12:56:24.034Z,39.8
2019-01-12T12:57:36.539Z,39.8
2019-01-12T12:58:48.733Z,39.8
2019-01-12T13:00:00.925Z,39.8
2019-01-12T13:03:37.505Z,39.9
2019-01-12T13:04:49.071Z,39.9
2019-01-12T13:06:01.900Z,39.8
2019-01-12T13:07:14.091Z,39.9
2019-01-12T13:08:26.282Z,39.9
2019-01-12T13:09:38.004Z,39.9
2019-01-12T13:10:50.675Z,39.9
2019-01-12T13:12:02.864Z,39.9
2019-01-12T13:13:15.063Z,39.9
2019-01-12T13:14:27.252Z,39.9
2019-01-12T13:15:39.445Z,39.9
2019-01-12T13:16:51.065Z,39.9
2019-01-12T13:18:03.835Z,39.9
2019-01-12T13:19:16.003Z,39.9
2019-01-12T13:20:28.239Z,39.9
2019-01-12T13:21:40.042Z,39.9
2019-01-12T13:22:52.000Z,39.9
2019-01-12T13:24:04.808Z,39.9
2019-01-12T13:25:17.004Z,39.9
2019-01-12T13:26:29.196Z,39.9
2019-01-12T13:27:41.390Z,39.9
2019-01-12T13:28:53.584Z,40
2019-01-12T13:30:05.774Z,39.9
2019-01-12T13:31:17.969Z,39.9
2019-01-12T13:32:30.016Z,39.9
2019-01-12T13:33:42.362Z,39.9
2019-01-12T13:34:54.547Z,39.9
2019-01-12T13:37:18.937Z,40
2019-01-12T13:39:43.325Z,40
2019-01-12T13:40:55.052Z,39.9
2019-01-12T13:42:07.715Z,40
2019-01-12T13:43:19.091Z,40
2019-01-12T13:44:32.102Z,40
2019-01-12T13:45:44.297Z,40
2019-01-12T13:46:56.497Z,40
2019-01-12T13:48:08.707Z,40
2019-01-12T13:49:20.878Z,40
2019-01-12T13:50:33.080Z,40
2019-01-12T13:51:45.271Z,40
2019-01-12T13:52:57.466Z,40
2019-01-12T13:54:09.656Z,40
2019-01-12T13:55:21.084Z,40
2019-01-12T13:56:34.042Z,40
2019-01-12T13:57:46.238Z,40
2019-01-12T13:58:58.427Z,40
2019-01-12T14:00:10.625Z,40
2019-01-12T14:01:22.813Z,40
2019-01-12T14:02:35.009Z,40
2019-01-12T14:03:47.205Z,40.1
2019-01-12T14:04:59.395Z,40.1
2019-01-12T14:06:11.595Z,40.1
2019-01-12T14:07:23.795Z,40.1
2019-01-12T14:08:35.983Z,40.1
2019-01-12T14:09:48.182Z,40.1
2019-01-12T14:11:00.389Z,40.1
2019-01-12T14:12:12.056Z,40.1
2019-01-12T14:13:24.756Z,40.1
2019-01-12T14:14:36.951Z,40.1
2019-01-12T14:15:49.150Z,40.1
2019-01-12T14:17:01.345Z,40.1
2019-01-12T14:18:13.540Z,40.1
2019-01-12T14:19:25.736Z,40.1
2019-01-12T14:20:37.926Z,40.1
2019-01-12T14:21:50.114Z,40.1
2019-01-12T14:23:02.310Z,40.2
2019-01-12T14:24:14.516Z,40.1
2019-01-12T14:26:38.894Z,40.1
2019-01-12T14:27:51.087Z,40.2
2019-01-12T14:29:03.281Z,40.2
2019-01-12T14:30:15.479Z,40.2
2019-01-12T14:31:26.000Z,40.2
2019-01-12T14:32:39.865Z,40.2
2019-01-12T14:33:52.057Z,40.2
2019-01-12T14:35:04.025Z,40.2
2019-01-12T14:36:16.442Z,40.2
2019-01-12T14:37:28.000Z,40.2
2019-01-12T14:38:40.839Z,40.2
2019-01-12T14:39:53.022Z,40.2
2019-01-12T14:41:05.228Z,40.2
2019-01-12T14:42:17.419Z,40.2
2019-01-12T14:43:29.611Z,40.2
2019-01-12T14:44:41.806Z,40.3
2019-01-12T14:45:53.000Z,40.3
2019-01-12T14:47:06.195Z,40.3
2019-01-12T14:48:18.383Z,40.3
2019-01-12T14:49:30.613Z,40.3
2019-01-12T14:51:54.969Z,40.3
2019-01-12T14:53:07.016Z,40.3
2019-01-12T14:55:31.550Z,40.3
2019-01-12T14:56:43.741Z,40.4
2019-01-12T14:57:55.943Z,40.3
2019-01-12T14:59:08.013Z,40.3
2019-01-12T15:00:20.331Z,40.3
2019-01-12T15:02:44.717Z,40.3
2019-01-12T15:03:56.090Z,40.3
2019-01-12T15:05:09.110Z,40.3
2019-01-12T15:06:21.295Z,40.4
2019-01-12T15:07:33.494Z,40.3
2019-01-12T15:08:45.685Z,40.4
2019-01-12T15:09:57.887Z,40.4
2019-01-12T15:11:10.129Z,40.4
2019-01-12T15:12:22.270Z,40.4
2019-01-12T15:13:34.465Z,40.4
2019-01-12T15:14:46.650Z,40.4
2019-01-12T15:15:58.085Z,40.4
2019-01-12T15:17:11.006Z,40.4
2019-01-12T15:18:23.233Z,40.4
2019-01-12T15:19:35.430Z,40.4
2019-01-12T15:20:47.620Z,40.4
2019-01-12T15:21:59.815Z,40.4
2019-01-12T15:23:12.010Z,40.4
2019-01-12T15:24:24.211Z,40.4
2019-01-12T15:25:36.405Z,40.4
2019-01-12T15:26:48.601Z,40.5
2019-01-12T15:28:00.788Z,40.5
2019-01-12T15:29:12.000Z,40.5
2019-01-12T15:30:25.336Z,40.5
2019-01-12T15:31:37.372Z,40.5
2019-01-12T15:32:49.559Z,40.5
2019-01-12T15:34:01.773Z,40.4
2019-01-12T15:35:13.000Z,40.5
2019-01-12T15:36:26.000Z,40.4
2019-01-12T15:38:50.537Z,40.5
2019-01-12T15:40:02.728Z,40.4
2019-01-12T15:41:14.924Z,40.5
2019-01-12T15:42:27.116Z,40.4
2019-01-12T15:43:39.306Z,40.5
2019-01-12T15:44:51.505Z,40.5
2019-01-12T15:46:03.698Z,40.5
2019-01-12T15:47:15.892Z,40.5
2019-01-12T15:48:28.085Z,40.5
2019-01-12T15:49:40.282Z,40.5
2019-01-12T15:50:52.475Z,40.5
2019-01-12T15:52:04.667Z,40.5
2019-01-12T15:53:16.862Z,40.5
2019-01-12T15:54:29.060Z,40.5
2019-01-12T15:55:41.262Z,40.5
2019-01-12T15:56:53.444Z,40.5
2019-01-12T15:58:05.641Z,40.5
2019-01-12T15:59:17.832Z,40.5
2019-01-12T16:00:30.032Z,40.5
2019-01-12T16:01:42.218Z,40.5
2019-01-12T16:02:54.414Z,40.5
2019-01-12T16:04:06.613Z,40.5
2019-01-12T16:05:18.804Z,40.6
2019-01-12T16:06:30.994Z,40.5
2019-01-12T16:07:43.186Z,40.6
2019-01-12T16:08:55.383Z,40.5
2019-01-12T16:10:07.579Z,40.5
2019-01-12T16:11:19.770Z,40.5
2019-01-12T16:12:31.097Z,40.6
2019-01-12T16:13:44.157Z,40.5
2019-01-12T16:14:56.353Z,40.6
2019-01-12T16:16:08.544Z,40.6
2019-01-12T16:17:20.745Z,40.5
2019-01-12T16:18:32.939Z,40.6
2019-01-12T16:19:45.128Z,40.7
2019-01-12T16:20:57.319Z,40.6
2019-01-12T16:22:09.525Z,40.7
2019-01-12T16:23:21.712Z,40.7
2019-01-12T16:24:33.905Z,40.6
2019-01-12T16:25:46.010Z,40.7
2019-01-12T16:26:58.294Z,40.7
2019-01-12T16:28:10.489Z,40.7
2019-01-12T16:29:22.682Z,40.7
2019-01-12T16:30:34.879Z,40.7
2019-01-12T16:31:47.072Z,40.6
2019-01-12T16:32:59.269Z,40.7
2019-01-12T16:34:11.000Z,40.6
2019-01-12T16:35:23.651Z,40.7
2019-01-12T16:36:35.850Z,40.8
2019-01-12T16:40:12.432Z,40.7
2019-01-12T16:41:24.624Z,40.7
2019-01-12T16:42:36.814Z,40.7
2019-01-12T16:43:49.017Z,40.7
2019-01-12T16:45:01.203Z,40.7
2019-01-12T16:46:13.404Z,40.8
2019-01-12T16:47:25.592Z,40.8
2019-01-12T16:48:37.790Z,40.7
2019-01-12T16:49:49.974Z,40.7